createdAt,value
2022-09-12T00:01:59.817Z,11.18
2022-09-12T00:07:01.168Z,11.11
2022-09-12T00:12:02.588Z,11.04
2022-09-12T00:17:03.934Z,11.01
2022-09-12T00:22:05.261Z,10.92
2022-09-12T00:27:06.759Z,10.92
2022-09-12T00:32:09.485Z,10.86
2022-09-12T00:37:10.790Z,10.80
2022-09-12T00:42:12.724Z,10.73
2022-09-12T00:47:14.004Z,10.71
2022-09-12T00:52:25.443Z,10.68
2022-09-12T00:57:30.133Z,10.70
2022-09-12T01:02:31.469Z,10.60
2022-09-12T01:07:39.776Z,10.53
2022-09-12T01:12:42.703Z,10.55
2022-09-12T01:17:55.875Z,10.47
2022-09-12T01:23:07.470Z,10.43
2022-09-12T01:28:14.814Z,10.39
2022-09-12T01:33:16.106Z,10.35
2022-09-12T01:38:27.507Z,10.34
2022-09-12T01:43:35.236Z,10.32
2022-09-12T01:48:38.997Z,10.22
2022-09-12T01:53:44.040Z,10.21
2022-09-12T01:58:49.755Z,10.20
2022-09-12T02:04:01.179Z,10.26
2022-09-12T02:09:11.382Z,10.17
2022-09-12T02:14:17.870Z,10.15
2022-09-12T02:19:21.249Z,10.09
2022-09-12T02:24:24.190Z,10.11
2022-09-12T02:29:25.726Z,10.01
2022-09-12T02:34:39.786Z,10.00
2022-09-12T02:39:45.001Z,9.92
2022-09-12T02:44:46.871Z,9.94
2022-09-12T02:49:48.584Z,9.87
2022-09-12T02:54:50.322Z,9.81
2022-09-12T02:59:54.841Z,9.83
2022-09-12T03:05:15.048Z,9.82
2022-09-12T03:10:32.995Z,9.84
2022-09-12T03:15:34.325Z,9.78
2022-09-12T03:20:45.118Z,9.72
2022-09-12T03:25:53.921Z,9.67
2022-09-12T03:30:56.511Z,9.60
2022-09-12T03:35:58.736Z,9.59
2022-09-12T03:41:00.981Z,9.56
2022-09-12T03:46:02.470Z,9.50
2022-09-12T03:51:05.127Z,9.49
2022-09-12T03:56:07.775Z,9.53
2022-09-12T04:01:13.831Z,9.51
2022-09-12T04:06:16.232Z,9.51
2022-09-12T04:11:18.289Z,9.55
2022-09-12T04:16:19.923Z,9.49
2022-09-12T04:21:22.189Z,9.48
2022-09-12T04:26:23.568Z,9.51
2022-09-12T04:31:25.700Z,9.55
2022-09-12T04:36:28.227Z,9.60
2022-09-12T04:41:31.013Z,9.75
2022-09-12T04:46:33.850Z,9.86
2022-09-12T04:51:36.337Z,9.94
2022-09-12T04:56:41.573Z,10.05
2022-09-12T05:01:43.308Z,10.31
2022-09-12T05:06:46.920Z,10.99
2022-09-12T05:12:05.016Z,11.19
2022-09-12T05:17:06.989Z,11.51
2022-09-12T05:22:08.364Z,11.69
2022-09-12T05:27:09.815Z,11.72
2022-09-12T05:32:12.501Z,11.82
2022-09-12T05:37:13.812Z,11.88
2022-09-12T05:42:15.288Z,11.97
2022-09-12T05:47:17.340Z,12.08
2022-09-12T05:52:18.696Z,12.40
2022-09-12T05:57:20.289Z,12.57
2022-09-12T06:02:21.696Z,12.90
2022-09-12T06:07:23.164Z,13.09
2022-09-12T06:12:26.609Z,13.22
2022-09-12T06:17:27.954Z,13.42
2022-09-12T06:22:29.373Z,14.11
2022-09-12T06:27:30.691Z,14.59
2022-09-12T06:32:32.001Z,14.48
2022-09-12T06:37:33.316Z,13.65
2022-09-12T06:42:34.665Z,13.58
2022-09-12T06:47:35.982Z,13.77
2022-09-12T06:52:37.554Z,13.66
2022-09-12T06:57:38.924Z,13.52
2022-09-12T07:02:40.502Z,14.07
2022-09-12T07:07:41.835Z,14.37
2022-09-12T07:12:43.221Z,14.95
2022-09-12T07:17:44.573Z,15.62
2022-09-12T07:22:46.661Z,17.08
2022-09-12T07:27:51.108Z,18.52
2022-09-12T07:32:53.666Z,17.80
2022-09-12T07:37:54.969Z,18.02
2022-09-12T07:42:56.341Z,18.24
2022-09-12T07:47:57.660Z,18.49
2022-09-12T07:52:59.013Z,18.97
2022-09-12T07:58:00.708Z,17.87
2022-09-12T08:03:03.814Z,18.27
2022-09-12T08:08:05.681Z,18.51
2022-09-12T08:13:10.698Z,18.32
2022-09-12T08:18:12.239Z,18.00
2022-09-12T08:23:13.557Z,19.97
2022-09-12T08:28:14.869Z,21.63
2022-09-12T08:33:17.963Z,21.40
2022-09-12T08:38:19.723Z,21.70
2022-09-12T08:43:35.326Z,22.27
2022-09-12T08:48:37.535Z,22.51
2022-09-12T08:53:39.089Z,22.89
2022-09-12T08:58:43.247Z,22.97
2022-09-12T09:03:50.919Z,22.50
2022-09-12T09:09:21.502Z,21.42
2022-09-12T09:14:51.783Z,22.22
2022-09-12T09:19:57.042Z,21.50
2022-09-12T09:25:02.446Z,23.12
2022-09-12T09:30:04.099Z,24.64
2022-09-12T09:35:14.858Z,22.99
2022-09-12T09:40:24.781Z,24.05
2022-09-12T09:45:29.158Z,25.67
2022-09-12T09:50:30.516Z,25.61
2022-09-12T09:55:38.423Z,25.52
2022-09-12T10:00:40.367Z,25.93
2022-09-12T10:05:48.935Z,25.38
2022-09-12T10:11:12.946Z,26.24
2022-09-12T10:16:27.752Z,26.85
2022-09-12T10:21:58.180Z,27.13
2022-09-12T10:27:11.541Z,26.20
2022-09-12T10:32:18.669Z,26.49
2022-09-12T10:37:25.809Z,26.66
2022-09-12T10:42:45.096Z,27.47
2022-09-12T10:47:46.618Z,27.78
2022-09-12T10:52:48.003Z,28.52
2022-09-12T10:58:00.917Z,27.12
2022-09-12T11:03:11.306Z,27.11
2022-09-12T11:08:15.822Z,28.99
2022-09-12T11:13:22.441Z,27.66
2022-09-12T11:18:36.013Z,27.38
2022-09-12T11:23:49.433Z,27.87
2022-09-12T11:29:09.913Z,27.93
2022-09-12T11:34:11.530Z,27.46
2022-09-12T11:39:17.228Z,27.08
2022-09-12T11:44:20.784Z,27.12
2022-09-12T11:49:42.346Z,26.75
2022-09-12T11:55:03.764Z,27.14
2022-09-12T12:00:29.956Z,27.11
2022-09-12T12:05:39.826Z,27.64
2022-09-12T12:10:42.437Z,26.66
2022-09-12T12:15:48.439Z,26.53
2022-09-12T12:20:50.764Z,27.18
2022-09-12T12:25:53.923Z,27.57
2022-09-12T12:30:55.289Z,26.75
2022-09-12T12:35:59.669Z,26.63
2022-09-12T12:41:19.237Z,26.12
2022-09-12T12:46:25.031Z,26.15
2022-09-12T12:51:29.513Z,25.57
2022-09-12T12:56:37.020Z,25.50
2022-09-12T13:01:44.726Z,25.29
2022-09-12T13:07:08.489Z,25.09
2022-09-12T13:12:12.452Z,24.93
2022-09-12T13:17:28.206Z,25.45
2022-09-12T13:22:38.481Z,25.85
2022-09-12T13:27:39.787Z,25.81
2022-09-12T13:32:42.280Z,25.63
2022-09-12T13:38:06.716Z,25.47
2022-09-12T13:43:17.773Z,25.55
2022-09-12T13:48:25.245Z,25.60
2022-09-12T13:53:30.304Z,25.40
2022-09-12T13:58:32.917Z,25.35
2022-09-12T14:03:58.947Z,25.55
2022-09-12T14:09:01.315Z,25.78
2022-09-12T14:14:06.449Z,25.57
2022-09-12T14:19:09.050Z,25.72
2022-09-12T14:24:12.454Z,25.61
2022-09-12T14:29:16.335Z,25.46
2022-09-12T14:34:18.888Z,25.65
2022-09-12T14:39:23.674Z,25.52
2022-09-12T14:44:25.879Z,25.32
2022-09-12T14:49:34.667Z,25.19
2022-09-12T14:54:37.395Z,25.03
2022-09-12T14:59:39.861Z,24.86
2022-09-12T15:04:42.254Z,24.86
2022-09-12T15:09:47.238Z,24.93
2022-09-12T15:14:48.760Z,24.69
2022-09-12T15:19:50.087Z,24.65
2022-09-12T15:24:51.401Z,24.44
2022-09-12T15:29:53.130Z,24.35
2022-09-12T15:34:54.752Z,24.16
2022-09-12T15:39:56.085Z,24.18
2022-09-12T15:45:01.797Z,24.17
2022-09-12T15:50:04.094Z,24.12
2022-09-12T15:55:05.935Z,24.07
2022-09-12T16:00:07.663Z,24.03
2022-09-12T16:05:13.268Z,23.98
2022-09-12T16:10:19.408Z,24.00
2022-09-12T16:15:22.233Z,23.90
2022-09-12T16:20:25.102Z,23.72
2022-09-12T16:25:26.464Z,23.60
2022-09-12T16:30:27.787Z,23.53
2022-09-12T16:35:31.027Z,23.31
2022-09-12T16:40:32.328Z,23.30
2022-09-12T16:45:33.906Z,23.29
2022-09-12T16:50:35.221Z,23.21
2022-09-12T16:55:36.550Z,23.15
2022-09-12T17:00:37.863Z,23.05
2022-09-12T17:05:39.454Z,22.92
2022-09-12T17:10:41.088Z,22.82
2022-09-12T17:15:42.405Z,22.84
2022-09-12T17:20:43.757Z,22.78
2022-09-12T17:25:48.490Z,22.57
2022-09-12T17:31:00.258Z,22.45
2022-09-12T17:36:06.183Z,22.16
2022-09-12T17:41:08.722Z,22.15
2022-09-12T17:46:10.149Z,21.96
2022-09-12T17:51:13.372Z,21.88
2022-09-12T17:56:15.591Z,21.66
2022-09-12T18:01:35.604Z,21.50
2022-09-12T18:06:37.436Z,21.34
2022-09-12T18:11:38.735Z,21.23
2022-09-12T18:16:40.172Z,20.82
2022-09-12T18:21:41.714Z,20.37
2022-09-12T18:26:43.959Z,19.84
2022-09-12T18:31:46.716Z,19.46
2022-09-12T18:36:48.943Z,19.09
2022-09-12T18:41:50.304Z,18.78
2022-09-12T18:46:51.668Z,18.45
2022-09-12T18:51:52.999Z,18.27
2022-09-12T18:56:54.332Z,18.09
2022-09-12T19:01:55.906Z,17.76
2022-09-12T19:06:57.423Z,17.58
2022-09-12T19:11:58.879Z,17.44
2022-09-12T19:17:00.446Z,17.32
2022-09-12T19:22:01.753Z,17.28
2022-09-12T19:27:04.021Z,16.93
2022-09-12T19:32:05.345Z,16.72
2022-09-12T19:37:06.710Z,16.71
2022-09-12T19:42:08.079Z,16.71
2022-09-12T19:47:11.121Z,16.64
2022-09-12T19:52:16.813Z,16.56
2022-09-12T19:57:18.988Z,16.50
2022-09-12T20:02:20.361Z,16.39
2022-09-12T20:07:21.870Z,16.21
2022-09-12T20:12:23.213Z,16.08
2022-09-12T20:17:24.546Z,16.01
2022-09-12T20:22:25.909Z,15.91
2022-09-12T20:27:27.308Z,15.93
2022-09-12T20:32:28.945Z,15.98
2022-09-12T20:37:30.324Z,15.97
2022-09-12T20:42:31.784Z,15.92
2022-09-12T20:47:33.084Z,15.82
2022-09-12T20:52:34.408Z,15.74
2022-09-12T20:57:35.720Z,15.62
2022-09-12T21:02:37.134Z,15.50
2022-09-12T21:07:38.542Z,15.39
2022-09-12T21:12:39.932Z,15.33
2022-09-12T21:17:41.257Z,15.26
2022-09-12T21:22:42.570Z,15.15
2022-09-12T21:27:43.881Z,15.08
2022-09-12T21:32:45.290Z,15.04
2022-09-12T21:37:46.601Z,14.98
2022-09-12T21:42:48.583Z,14.92
2022-09-12T21:47:49.900Z,14.82
2022-09-12T21:52:51.225Z,14.77
2022-09-12T21:57:53.485Z,14.72
2022-09-12T22:02:54.893Z,14.67
2022-09-12T22:07:56.222Z,14.68
2022-09-12T22:12:57.544Z,14.66
2022-09-12T22:17:59.728Z,14.58
2022-09-12T22:23:24.369Z,14.49
2022-09-12T22:28:26.391Z,14.49
2022-09-12T22:33:27.777Z,14.34
2022-09-12T22:38:29.143Z,14.17
2022-09-12T22:43:31.311Z,14.16
2022-09-12T22:48:32.688Z,14.14
2022-09-12T22:53:34.558Z,14.07
2022-09-12T22:58:41.314Z,13.93
2022-09-12T23:03:42.736Z,13.90
2022-09-12T23:08:44.289Z,13.86
2022-09-12T23:13:46.841Z,13.75
2022-09-12T23:18:48.628Z,13.68
2022-09-12T23:23:50.252Z,13.64
2022-09-12T23:28:53.172Z,13.56
2022-09-12T23:33:54.793Z,13.40
2022-09-12T23:38:56.175Z,13.39
2022-09-12T23:43:57.602Z,13.39
2022-09-12T23:48:58.922Z,13.37
2022-09-12T23:54:00.269Z,13.30
2022-09-12T23:59:01.569Z,13.27
